createdAt,value
2018-01-28T00:00:19.490Z,11.52
2018-01-28T00:03:29.507Z,13.65
2018-01-28T00:06:39.314Z,18.05
2018-01-28T00:09:49.404Z,16.17
2018-01-28T00:12:59.110Z,17.90
2018-01-28T00:16:09.088Z,26.58
2018-01-28T00:19:18.831Z,13.20
2018-01-28T00:22:28.619Z,19.33
2018-01-28T00:25:38.330Z,14.18
2018-01-28T00:28:48.196Z,19.50
2018-01-28T00:31:58.032Z,17.45
2018-01-28T00:35:08.074Z,14.82
2018-01-28T00:38:17.906Z,12.77
2018-01-28T00:41:28.045Z,15.57
2018-01-28T00:44:39.042Z,19.48
2018-01-28T00:47:48.876Z,15.18
2018-01-28T00:50:59.206Z,16.67
2018-01-28T00:54:09.641Z,15.75
2018-01-28T00:57:19.655Z,19.08
2018-01-28T01:00:30.305Z,17.12
2018-01-28T01:03:41.665Z,13.27
2018-01-28T01:06:52.180Z,13.88
2018-01-28T01:10:02.439Z,16.27
2018-01-28T01:13:12.788Z,16.10
2018-01-28T01:16:22.739Z,17.05
2018-01-28T01:19:32.480Z,15.25
2018-01-28T01:22:43.123Z,18.17
2018-01-28T01:25:53.202Z,16.80
2018-01-28T01:29:03.070Z,14.52
2018-01-28T01:32:12.902Z,14.93
2018-01-28T01:35:22.819Z,19.65
2018-01-28T01:38:32.711Z,17.20
2018-01-28T01:41:42.619Z,17.48
2018-01-28T01:44:52.317Z,17.42
2018-01-28T01:48:02.199Z,17.50
2018-01-28T01:51:12.671Z,17.73
2018-01-28T01:54:22.947Z,17.77
2018-01-28T01:57:33.290Z,16.05
2018-01-28T02:00:43.420Z,18.62
2018-01-28T02:03:53.664Z,20.73
2018-01-28T02:07:04.015Z,21.80
2018-01-28T02:10:14.432Z,16.10
2018-01-28T02:13:24.265Z,20.05
2018-01-28T02:16:34.309Z,22.35
2018-01-28T02:19:45.804Z,26.25
2018-01-28T02:22:55.247Z,17.48
2018-01-28T02:26:04.971Z,18.35
2018-01-28T02:29:14.860Z,25.27
2018-01-28T02:32:24.939Z,19.15
2018-01-28T02:35:34.744Z,15.02
2018-01-28T02:38:44.687Z,15.40
2018-01-28T02:41:54.630Z,15.85
2018-01-28T02:45:03.924Z,19.83
2018-01-28T02:48:14.247Z,24.83
2018-01-28T02:51:24.051Z,14.68
2018-01-28T02:54:34.698Z,14.32
2018-01-28T02:57:44.878Z,16.05
2018-01-28T03:00:54.747Z,17.70
2018-01-28T03:04:05.047Z,13.40
2018-01-28T03:07:14.970Z,15.75
2018-01-28T03:10:24.900Z,15.63
2018-01-28T03:13:34.786Z,17.98
2018-01-28T03:16:45.860Z,15.60
2018-01-28T03:19:56.051Z,17.00
2018-01-28T03:23:06.596Z,16.87
2018-01-28T03:26:17.059Z,17.80
2018-01-28T03:29:27.765Z,10.68
2018-01-28T03:32:37.834Z,19.55
2018-01-28T03:35:47.355Z,13.35
2018-01-28T03:38:57.360Z,19.58
2018-01-28T03:42:07.392Z,12.05
2018-01-28T03:45:17.347Z,16.90
2018-01-28T03:48:27.183Z,14.00
2018-01-28T03:51:36.948Z,15.75
2018-01-28T03:54:46.993Z,18.30
2018-01-28T03:57:56.843Z,18.48
2018-01-28T04:01:06.721Z,13.07
2018-01-28T04:04:15.935Z,12.45
2018-01-28T04:07:27.031Z,15.80
2018-01-28T04:10:37.170Z,15.02
2018-01-28T04:13:47.202Z,16.48
2018-01-28T04:16:57.086Z,20.05
2018-01-28T04:20:07.307Z,19.80
2018-01-28T04:23:18.170Z,13.52
2018-01-28T04:26:28.549Z,14.35
2018-01-28T04:29:38.710Z,14.52
2018-01-28T04:32:49.227Z,22.85
2018-01-28T04:35:59.758Z,16.15
2018-01-28T04:39:10.313Z,14.10
2018-01-28T04:42:21.027Z,14.40
2018-01-28T04:45:31.357Z,17.60
2018-01-28T04:48:41.904Z,17.58
2018-01-28T04:51:51.905Z,15.02
2018-01-28T04:55:01.770Z,15.20
2018-01-28T04:58:11.383Z,18.27
2018-01-28T05:01:22.011Z,22.30
2018-01-28T05:04:32.072Z,14.27
2018-01-28T05:07:41.774Z,19.85
2018-01-28T05:10:51.885Z,13.77
2018-01-28T05:14:01.782Z,17.48
2018-01-28T05:17:11.863Z,17.83
2018-01-28T05:20:21.637Z,12.02
2018-01-28T05:23:31.382Z,17.17
2018-01-28T05:26:41.273Z,16.55
2018-01-28T05:29:51.205Z,16.20
2018-01-28T05:33:01.331Z,13.25
2018-01-28T05:36:11.579Z,14.82
2018-01-28T05:39:21.799Z,11.77
2018-01-28T05:42:32.079Z,17.02
2018-01-28T05:45:43.486Z,13.65
2018-01-28T05:48:53.335Z,16.60
2018-01-28T05:52:03.977Z,14.35
2018-01-28T05:55:13.788Z,15.65
2018-01-28T05:58:23.610Z,16.27
2018-01-28T06:01:35.871Z,24.33
2018-01-28T06:04:46.107Z,12.55
2018-01-28T06:07:56.111Z,16.50
2018-01-28T06:11:05.897Z,14.80
2018-01-28T06:14:15.760Z,15.88
2018-01-28T06:17:25.687Z,13.62
2018-01-28T06:20:35.780Z,12.40
2018-01-28T06:23:46.298Z,15.15
2018-01-28T06:26:56.302Z,16.08
2018-01-28T06:30:06.423Z,16.83
2018-01-28T06:33:16.665Z,15.30
2018-01-28T06:36:26.414Z,11.77
2018-01-28T06:39:36.486Z,13.20
2018-01-28T06:42:46.510Z,11.60
2018-01-28T06:45:57.065Z,13.10
2018-01-28T06:49:07.376Z,12.90
2018-01-28T06:52:18.690Z,13.55
2018-01-28T06:55:28.752Z,13.62
2018-01-28T06:58:38.561Z,14.77
2018-01-28T07:01:48.390Z,13.10
2018-01-28T07:04:58.127Z,15.93
2018-01-28T07:08:08.771Z,12.27
2018-01-28T07:11:19.114Z,14.63
2018-01-28T07:14:29.018Z,14.07
2018-01-28T07:17:38.845Z,14.07
2018-01-28T07:20:49.396Z,10.93
2018-01-28T07:24:00.326Z,14.05
2018-01-28T07:27:10.462Z,11.23
2018-01-28T07:30:20.500Z,14.10
2018-01-28T07:33:30.431Z,19.00
2018-01-28T07:36:40.308Z,15.43
2018-01-28T07:39:50.257Z,11.20
2018-01-28T07:43:00.084Z,11.85
2018-01-28T07:46:09.869Z,11.90
2018-01-28T07:49:19.995Z,14.15
2018-01-28T07:52:30.033Z,14.93
2018-01-28T07:55:40.049Z,12.93
2018-01-28T07:58:50.287Z,9.95
2018-01-28T08:02:00.439Z,12.60
2018-01-28T08:05:10.679Z,11.45
2018-01-28T08:08:23.931Z,11.12
2018-01-28T08:15:14.866Z,11.45
2018-01-28T08:18:25.483Z,10.98
2018-01-28T08:21:34.969Z,10.13
2018-01-28T08:24:44.901Z,9.90
2018-01-28T08:31:42.491Z,11.52
2018-01-28T08:34:52.317Z,11.85
2018-01-28T08:38:02.582Z,12.32
2018-01-28T08:41:13.329Z,10.30
2018-01-28T08:44:23.532Z,10.10
2018-01-28T08:47:33.540Z,11.63
2018-01-28T08:50:43.422Z,12.43
2018-01-28T08:53:52.964Z,14.13
2018-01-28T08:57:03.082Z,31.92
2018-01-28T09:00:12.764Z,15.75
2018-01-28T09:03:22.606Z,9.27
2018-01-28T09:06:32.677Z,17.00
2018-01-28T09:09:42.389Z,33.03
2018-01-28T09:12:52.345Z,10.02
2018-01-28T09:16:02.708Z,10.45
2018-01-28T09:19:12.491Z,9.90
2018-01-28T09:22:22.319Z,11.73
2018-01-28T09:25:31.917Z,15.70
2018-01-28T09:28:41.820Z,12.37
2018-01-28T09:31:51.659Z,9.75
2018-01-28T09:35:01.452Z,10.75
2018-01-28T09:38:11.179Z,9.13
2018-01-28T09:41:21.703Z,9.52
2018-01-28T09:44:31.872Z,9.57
2018-01-28T09:47:42.483Z,9.55
2018-01-28T09:50:52.630Z,8.20
2018-01-28T09:54:02.678Z,9.00
2018-01-28T09:57:12.773Z,9.07
2018-01-28T10:00:22.581Z,8.60
2018-01-28T10:03:32.513Z,10.63
2018-01-28T10:06:43.197Z,10.55
2018-01-28T10:09:53.602Z,8.93
2018-01-28T10:13:03.228Z,8.40
2018-01-28T10:16:13.874Z,8.27
2018-01-28T10:19:23.927Z,10.95
2018-01-28T10:22:33.760Z,10.35
2018-01-28T10:25:43.733Z,9.30
2018-01-28T10:28:53.734Z,10.23
2018-01-28T10:32:04.010Z,8.32
2018-01-28T10:35:13.739Z,10.75
2018-01-28T10:38:25.091Z,8.77
2018-01-28T10:41:35.024Z,8.52
2018-01-28T10:44:45.597Z,9.68
2018-01-28T10:47:55.521Z,12.68
2018-01-28T10:51:05.416Z,8.02
2018-01-28T10:54:16.020Z,11.25
2018-01-28T10:57:25.719Z,10.85
2018-01-28T11:00:35.765Z,9.05
2018-01-28T11:03:45.496Z,11.95
2018-01-28T11:06:55.351Z,8.60
2018-01-28T11:10:05.279Z,9.32
2018-01-28T11:13:15.166Z,9.35
2018-01-28T11:16:24.886Z,9.05
2018-01-28T11:19:35.117Z,8.40
2018-01-28T11:22:44.686Z,8.77
2018-01-28T11:25:54.728Z,8.85
2018-01-28T11:29:05.372Z,9.27
2018-01-28T11:32:16.882Z,9.23
2018-01-28T11:35:26.855Z,8.45
2018-01-28T11:38:36.575Z,9.25
2018-01-28T11:41:46.485Z,8.52
2018-01-28T11:44:57.127Z,9.25
2018-01-28T11:48:07.194Z,6.72
2018-01-28T11:51:16.931Z,8.27
2018-01-28T11:54:26.603Z,8.57
2018-01-28T11:57:37.347Z,11.27
2018-01-28T12:00:47.103Z,8.57
2018-01-28T12:03:57.578Z,9.10
2018-01-28T12:07:07.569Z,7.80
2018-01-28T12:10:18.288Z,8.57
2018-01-28T12:13:28.914Z,7.72
2018-01-28T12:16:39.290Z,8.90
2018-01-28T12:19:49.136Z,7.90
2018-01-28T12:22:59.674Z,7.95
2018-01-28T12:26:10.515Z,7.85
2018-01-28T12:29:21.290Z,11.07
2018-01-28T12:32:30.947Z,10.25
2018-01-28T12:35:40.954Z,8.95
2018-01-28T12:38:50.755Z,7.57
2018-01-28T12:42:00.458Z,8.00
2018-01-28T12:45:10.202Z,10.00
2018-01-28T12:48:21.709Z,7.60
2018-01-28T12:51:33.375Z,7.95
2018-01-28T12:54:43.970Z,9.23
2018-01-28T12:57:54.700Z,9.98
2018-01-28T13:01:04.802Z,16.42
2018-01-28T13:04:15.342Z,8.40
2018-01-28T13:07:26.231Z,9.98
2018-01-28T13:10:36.502Z,8.77
2018-01-28T13:13:46.514Z,8.85
2018-01-28T13:16:57.121Z,9.00
2018-01-28T13:20:07.007Z,9.32
2018-01-28T13:23:17.566Z,8.38
2018-01-28T13:26:28.338Z,8.25
2018-01-28T13:29:38.490Z,7.47
2018-01-28T13:32:49.138Z,7.90
2018-01-28T13:35:59.210Z,10.20
2018-01-28T13:39:09.949Z,7.95
2018-01-28T13:42:19.977Z,9.95
2018-01-28T13:45:30.658Z,9.23
2018-01-28T13:48:41.499Z,8.35
2018-01-28T13:51:51.420Z,8.95
2018-01-28T13:55:01.933Z,10.40
2018-01-28T13:58:11.858Z,10.27
2018-01-28T14:01:23.268Z,7.80
2018-01-28T14:04:33.392Z,8.75
2018-01-28T14:07:44.150Z,9.82
2018-01-28T14:10:54.806Z,7.97
2018-01-28T14:14:05.402Z,8.00
2018-01-28T14:17:15.338Z,9.13
2018-01-28T14:20:25.224Z,7.90
2018-01-28T14:23:35.086Z,8.63
2018-01-28T14:26:44.900Z,7.87
2018-01-28T14:29:55.515Z,10.10
2018-01-28T14:33:05.371Z,8.57
2018-01-28T14:36:15.993Z,7.55
2018-01-28T14:39:25.804Z,9.45
2018-01-28T14:42:36.426Z,9.23
2018-01-28T14:45:45.815Z,9.00
2018-01-28T14:48:56.176Z,9.02
2018-01-28T14:52:05.995Z,7.57
2018-01-28T14:55:15.686Z,8.88
2018-01-28T14:58:26.368Z,7.72
2018-01-28T15:01:36.486Z,8.45
2018-01-28T15:04:46.503Z,8.00
2018-01-28T15:07:56.262Z,8.00
2018-01-28T15:11:07.073Z,7.80
2018-01-28T15:14:29.273Z,8.70
2018-01-28T15:17:39.570Z,9.50
2018-01-28T15:20:49.298Z,11.12
2018-01-28T15:23:59.985Z,8.55
2018-01-28T15:27:09.967Z,7.90
2018-01-28T15:30:20.494Z,7.45
2018-01-28T15:33:30.331Z,7.97
2018-01-28T15:36:40.194Z,7.82
2018-01-28T15:39:50.357Z,12.37
2018-01-28T15:43:00.667Z,7.15
2018-01-28T15:46:11.097Z,13.73
2018-01-28T15:49:21.666Z,10.85
2018-01-28T15:52:31.934Z,9.45
2018-01-28T15:55:42.219Z,8.70
2018-01-28T15:58:51.880Z,8.52
2018-01-28T16:02:01.667Z,6.97
2018-01-28T16:05:11.560Z,8.00
2018-01-28T16:08:21.344Z,8.63
2018-01-28T16:11:31.302Z,9.02
2018-01-28T16:14:41.939Z,9.82
2018-01-28T16:17:52.398Z,12.45
2018-01-28T16:21:03.299Z,10.95
2018-01-28T16:24:13.095Z,10.98
2018-01-28T16:27:22.918Z,9.75
2018-01-28T16:30:32.849Z,9.05
2018-01-28T16:33:43.482Z,7.55
2018-01-28T16:36:54.139Z,8.23
2018-01-28T16:40:03.775Z,8.43
2018-01-28T16:43:14.640Z,9.23
2018-01-28T16:46:24.764Z,12.88
2018-01-28T16:49:35.417Z,9.35
2018-01-28T16:52:45.590Z,9.98
2018-01-28T16:55:56.201Z,9.93
2018-01-28T16:59:06.080Z,9.02
2018-01-28T17:02:16.116Z,10.65
2018-01-28T17:05:26.944Z,11.77
2018-01-28T17:08:37.303Z,10.98
2018-01-28T17:11:47.928Z,9.35
2018-01-28T17:14:58.591Z,12.18
2018-01-28T17:18:09.243Z,9.32
2018-01-28T17:21:19.233Z,8.15
2018-01-28T17:24:29.048Z,8.90
2018-01-28T17:27:39.002Z,10.15
2018-01-28T17:30:48.809Z,8.20
2018-01-28T17:33:59.428Z,9.15
2018-01-28T17:37:09.376Z,11.15
2018-01-28T17:40:19.051Z,10.63
2018-01-28T17:43:28.744Z,8.50
2018-01-28T17:46:38.711Z,8.27
2018-01-28T17:49:49.432Z,9.73
2018-01-28T17:52:59.974Z,8.82
2018-01-28T17:56:10.087Z,10.35
2018-01-28T17:59:20.688Z,9.63
2018-01-28T18:02:31.323Z,9.32
2018-01-28T18:05:41.196Z,8.32
2018-01-28T18:08:52.549Z,9.55
2018-01-28T18:12:02.966Z,8.60
2018-01-28T18:15:12.886Z,8.10
2018-01-28T18:18:22.664Z,9.57
2018-01-28T18:21:32.061Z,9.50
2018-01-28T18:24:42.467Z,7.75
2018-01-28T18:27:52.096Z,10.20
2018-01-28T18:31:02.180Z,11.02
2018-01-28T18:34:11.975Z,9.60
2018-01-28T18:37:21.795Z,9.85
2018-01-28T18:40:31.694Z,11.10
2018-01-28T18:43:43.095Z,9.35
2018-01-28T18:46:53.073Z,10.02
2018-01-28T18:50:03.013Z,9.82
2018-01-28T18:53:12.724Z,9.30
2018-01-28T18:56:23.535Z,8.73
2018-01-28T18:59:33.815Z,9.90
2018-01-28T19:02:43.733Z,8.68
2018-01-28T19:05:53.513Z,9.10
2018-01-28T19:09:03.286Z,9.77
2018-01-28T19:12:14.052Z,8.13
2018-01-28T19:15:24.742Z,19.42
2018-01-28T19:18:34.896Z,12.95
2018-01-28T19:21:44.751Z,11.75
2018-01-28T19:24:54.628Z,9.52
2018-01-28T19:28:04.436Z,8.10
2018-01-28T19:31:14.248Z,10.27
2018-01-28T19:34:24.997Z,8.80
2018-01-28T19:37:35.090Z,8.73
2018-01-28T19:40:45.013Z,9.20
2018-01-28T19:43:55.560Z,8.75
2018-01-28T19:47:05.678Z,8.02
2018-01-28T19:50:15.611Z,14.05
2018-01-28T19:53:26.405Z,8.45
2018-01-28T19:56:36.248Z,12.52
2018-01-28T19:59:46.037Z,8.88
2018-01-28T20:02:56.673Z,8.45
2018-01-28T20:06:07.442Z,7.75
2018-01-28T20:09:17.986Z,11.35
2018-01-28T20:12:28.635Z,7.60
2018-01-28T20:15:39.223Z,8.30
2018-01-28T20:18:49.944Z,9.98
2018-01-28T20:21:59.793Z,8.20
2018-01-28T20:25:10.617Z,8.23
2018-01-28T20:28:21.206Z,9.20
2018-01-28T20:31:31.896Z,9.25
2018-01-28T20:34:42.476Z,8.15
2018-01-28T20:37:52.528Z,8.73
2018-01-28T20:41:03.247Z,10.32
2018-01-28T20:44:13.135Z,8.90
2018-01-28T20:47:23.382Z,8.77
2018-01-28T20:50:33.152Z,9.07
2018-01-28T20:53:43.120Z,8.88
2018-01-28T20:56:53.059Z,10.57
2018-01-28T21:00:03.368Z,9.00
2018-01-28T21:03:13.185Z,10.23
2018-01-28T21:06:23.698Z,8.77
2018-01-28T21:09:33.482Z,9.32
2018-01-28T21:12:43.015Z,9.77
2018-01-28T21:15:53.589Z,8.77
2018-01-28T21:19:03.517Z,8.75
2018-01-28T21:22:13.306Z,9.05
2018-01-28T21:25:23.133Z,9.10
2018-01-28T21:28:34.051Z,7.85
2018-01-28T21:31:44.972Z,10.00
2018-01-28T21:34:55.558Z,8.93
2018-01-28T21:38:06.053Z,9.30
2018-01-28T21:41:16.889Z,10.10
2018-01-28T21:44:27.416Z,8.95
2018-01-28T21:47:36.976Z,9.65
2018-01-28T21:50:47.365Z,10.25
2018-01-28T21:53:57.616Z,10.43
2018-01-28T21:57:09.503Z,10.27
2018-01-28T22:00:20.217Z,10.05
2018-01-28T22:03:30.960Z,9.98
2018-01-28T22:06:40.929Z,9.77
2018-01-28T22:09:51.479Z,10.05
2018-01-28T22:13:02.253Z,9.60
2018-01-28T22:16:13.265Z,9.48
2018-01-28T22:19:24.175Z,7.75
2018-01-28T22:22:35.387Z,12.63
2018-01-28T22:25:45.693Z,13.70
2018-01-28T22:28:55.474Z,13.73
2018-01-28T22:32:05.385Z,10.50
2018-01-28T22:35:17.084Z,10.77
2018-01-28T22:38:27.304Z,10.88
2018-01-28T22:41:37.900Z,11.98
2018-01-28T22:44:48.407Z,10.63
2018-01-28T22:47:59.536Z,12.55
2018-01-28T22:51:10.427Z,11.20
2018-01-28T22:54:20.652Z,11.52
2018-01-28T22:57:31.502Z,9.27
2018-01-28T23:00:41.739Z,10.85
2018-01-28T23:03:52.679Z,10.23
2018-01-28T23:07:04.139Z,9.68
2018-01-28T23:10:14.202Z,9.77
2018-01-28T23:13:24.458Z,10.13
2018-01-28T23:16:35.384Z,10.85
2018-01-28T23:19:46.689Z,10.25
2018-01-28T23:22:56.952Z,9.15
2018-01-28T23:26:07.051Z,11.75
2018-01-28T23:29:17.636Z,9.43
2018-01-28T23:32:28.250Z,10.27
2018-01-28T23:35:37.794Z,11.55
2018-01-28T23:38:47.466Z,8.82
2018-01-28T23:41:57.514Z,9.98
2018-01-28T23:45:06.902Z,10.30
2018-01-28T23:48:16.870Z,10.68
2018-01-28T23:51:27.841Z,10.25
2018-01-28T23:54:38.443Z,9.60
2018-01-28T23:57:48.417Z,9.90
